createdAt,value
2022-08-30T00:00:06.754Z,3.60
2022-08-30T00:02:52.765Z,4.22
2022-08-30T00:05:39.675Z,3.95
2022-08-30T00:08:25.525Z,3.80
2022-08-30T00:11:14.776Z,3.53
2022-08-30T00:14:00.596Z,3.63
2022-08-30T00:16:46.957Z,4.10
2022-08-30T00:19:32.715Z,3.35
2022-08-30T00:22:18.426Z,3.70
2022-08-30T00:25:04.597Z,3.00
2022-08-30T00:27:50.692Z,3.67
2022-08-30T00:30:37.051Z,3.45
2022-08-30T00:33:23.027Z,3.70
2022-08-30T00:36:08.600Z,3.28
2022-08-30T00:38:54.248Z,2.95
2022-08-30T00:41:40.607Z,2.70
2022-08-30T00:44:25.989Z,3.30
2022-08-30T00:47:12.373Z,2.97
2022-08-30T00:49:58.005Z,3.08
2022-08-30T00:52:48.637Z,2.60
2022-08-30T00:55:35.381Z,3.10
2022-08-30T00:58:31.917Z,3.00
2022-08-30T01:01:19.088Z,2.70
2022-08-30T01:04:06.935Z,2.92
2022-08-30T01:06:53.885Z,2.80
2022-08-30T01:09:39.807Z,2.88
2022-08-30T01:12:25.193Z,2.30
2022-08-30T01:15:14.541Z,2.65
2022-08-30T01:18:01.216Z,3.03
2022-08-30T01:21:07.352Z,2.70
2022-08-30T01:23:57.103Z,2.70
2022-08-30T01:26:43.332Z,2.97
2022-08-30T01:29:29.458Z,2.95
2022-08-30T01:32:21.245Z,2.67
2022-08-30T01:35:08.066Z,2.95
2022-08-30T01:37:54.399Z,2.85
2022-08-30T01:40:40.740Z,3.15
2022-08-30T01:43:27.086Z,3.10
2022-08-30T01:46:14.026Z,2.72
2022-08-30T01:48:59.649Z,2.50
2022-08-30T01:51:45.461Z,2.80
2022-08-30T01:54:37.966Z,2.83
2022-08-30T01:57:26.907Z,2.58
2022-08-30T02:00:13.637Z,2.92
2022-08-30T02:02:59.540Z,2.80
2022-08-30T02:05:45.319Z,2.72
2022-08-30T02:08:31.690Z,2.80
2022-08-30T02:11:20.154Z,2.70
2022-08-30T02:14:06.517Z,2.65
2022-08-30T02:16:52.294Z,2.70
2022-08-30T02:19:39.170Z,2.65
2022-08-30T02:22:25.052Z,2.70
2022-08-30T02:25:20.382Z,2.50
2022-08-30T02:28:06.800Z,3.05
2022-08-30T02:30:54.480Z,2.72
2022-08-30T02:33:40.565Z,2.53
2022-08-30T02:36:26.257Z,3.00
2022-08-30T02:39:14.022Z,2.95
2022-08-30T02:41:59.913Z,3.00
2022-08-30T02:44:45.959Z,2.83
2022-08-30T02:47:32.277Z,2.80
2022-08-30T02:50:18.625Z,2.63
2022-08-30T02:53:04.894Z,2.95
2022-08-30T02:55:50.459Z,2.75
2022-08-30T02:58:36.760Z,2.80
2022-08-30T03:01:26.335Z,3.20
2022-08-30T03:04:15.093Z,3.00
2022-08-30T03:07:00.917Z,2.50
2022-08-30T03:09:47.277Z,2.92
2022-08-30T03:12:33.254Z,3.08
2022-08-30T03:15:21.901Z,2.92
2022-08-30T03:18:08.660Z,2.72
2022-08-30T03:20:54.901Z,2.80
2022-08-30T03:23:41.722Z,3.15
2022-08-30T03:26:27.410Z,2.70
2022-08-30T03:29:13.725Z,3.08
2022-08-30T03:31:59.520Z,2.78
2022-08-30T03:34:45.380Z,3.20
2022-08-30T03:37:31.060Z,3.13
2022-08-30T03:40:20.127Z,2.95
2022-08-30T03:43:06.007Z,3.03
2022-08-30T03:45:52.256Z,2.95
2022-08-30T03:48:38.010Z,3.42
2022-08-30T03:51:24.872Z,3.10
2022-08-30T03:54:11.081Z,3.05
2022-08-30T03:56:56.971Z,3.95
2022-08-30T03:59:43.058Z,3.55
2022-08-30T04:02:29.129Z,3.55
2022-08-30T04:05:18.567Z,3.15
2022-08-30T04:08:04.999Z,3.50
2022-08-30T04:10:51.602Z,3.65
2022-08-30T04:13:37.594Z,3.47
2022-08-30T04:16:24.670Z,3.80
2022-08-30T04:19:10.828Z,3.72
2022-08-30T04:21:57.357Z,3.78
2022-08-30T04:24:43.207Z,3.55
2022-08-30T04:27:29.244Z,3.92
2022-08-30T04:30:17.446Z,3.60
2022-08-30T04:33:02.821Z,3.65
2022-08-30T04:35:49.841Z,3.85
2022-08-30T04:38:37.377Z,3.85
2022-08-30T04:41:24.482Z,4.03
2022-08-30T04:44:14.110Z,3.97
2022-08-30T04:47:05.111Z,3.90
2022-08-30T04:49:51.965Z,4.22
2022-08-30T04:52:37.938Z,4.30
2022-08-30T04:55:25.554Z,4.60
2022-08-30T04:58:11.909Z,4.22
2022-08-30T05:00:57.346Z,4.80
2022-08-30T05:03:43.229Z,4.68
2022-08-30T05:06:31.276Z,5.13
2022-08-30T05:09:17.842Z,5.50
2022-08-30T05:12:03.865Z,5.50
2022-08-30T05:14:49.940Z,5.13
2022-08-30T05:17:37.784Z,5.13
2022-08-30T05:20:23.277Z,5.82
2022-08-30T05:23:09.559Z,4.60
2022-08-30T05:25:55.622Z,4.18
2022-08-30T05:28:41.352Z,4.40
2022-08-30T05:31:29.124Z,4.60
2022-08-30T05:34:14.837Z,4.70
2022-08-30T05:37:02.819Z,4.55
2022-08-30T05:39:51.210Z,3.95
2022-08-30T05:42:38.765Z,4.25
2022-08-30T05:45:24.722Z,4.35
2022-08-30T05:48:13.047Z,4.65
2022-08-30T05:51:09.418Z,3.97
2022-08-30T05:53:56.418Z,5.22
2022-08-30T05:56:45.322Z,4.10
2022-08-30T05:59:31.614Z,4.60
2022-08-30T06:02:17.330Z,5.10
2022-08-30T06:05:05.163Z,6.18
2022-08-30T06:07:51.356Z,8.25
2022-08-30T06:10:37.445Z,10.07
2022-08-30T06:13:23.530Z,10.50
2022-08-30T06:16:12.765Z,9.73
2022-08-30T06:19:00.258Z,9.70
2022-08-30T06:21:50.878Z,9.10
2022-08-30T06:24:56.503Z,10.60
2022-08-30T06:27:42.286Z,9.88
2022-08-30T06:30:28.026Z,10.70
2022-08-30T06:33:14.162Z,13.48
2022-08-30T06:36:08.588Z,12.35
2022-08-30T06:38:56.174Z,9.27
2022-08-30T06:41:42.596Z,7.93
2022-08-30T06:44:42.442Z,7.93
2022-08-30T06:47:31.701Z,8.48
2022-08-30T06:50:18.285Z,8.00
2022-08-30T06:53:05.741Z,7.60
2022-08-30T06:56:03.765Z,11.45
2022-08-30T06:58:50.725Z,7.30
2022-08-30T07:01:36.610Z,7.70
2022-08-30T07:04:22.396Z,7.28
2022-08-30T07:07:11.178Z,6.90
2022-08-30T07:09:57.629Z,6.68
2022-08-30T07:12:43.803Z,7.68
2022-08-30T07:15:29.598Z,8.75
2022-08-30T07:18:38.102Z,7.88
2022-08-30T07:21:28.628Z,7.95
2022-08-30T07:24:14.571Z,8.93
2022-08-30T07:27:00.747Z,8.23
2022-08-30T07:29:48.887Z,6.93
2022-08-30T07:32:35.027Z,7.60
2022-08-30T07:35:21.101Z,8.13
2022-08-30T07:38:07.097Z,8.93
2022-08-30T07:40:53.600Z,7.75
2022-08-30T07:43:39.597Z,8.43
2022-08-30T07:46:26.290Z,7.22
2022-08-30T07:49:13.064Z,8.80
2022-08-30T07:51:59.025Z,7.90
2022-08-30T07:54:44.534Z,8.38
2022-08-30T07:57:34.378Z,9.23
2022-08-30T08:00:20.806Z,7.55
2022-08-30T08:03:09.796Z,10.80
2022-08-30T08:05:55.934Z,10.68
2022-08-30T08:08:42.956Z,11.05
2022-08-30T08:11:33.308Z,10.77
2022-08-30T08:14:21.709Z,10.80
2022-08-30T08:17:09.474Z,9.10
2022-08-30T08:19:55.527Z,10.32
2022-08-30T08:22:41.469Z,7.40
2022-08-30T08:25:27.662Z,11.05
2022-08-30T08:28:13.386Z,12.23
2022-08-30T08:30:59.318Z,12.25
2022-08-30T08:33:45.506Z,12.40
2022-08-30T08:36:32.625Z,13.20
2022-08-30T08:39:18.944Z,12.38
2022-08-30T08:42:24.754Z,11.27
2022-08-30T08:45:19.402Z,11.25
2022-08-30T08:48:17.094Z,11.77
2022-08-30T08:51:22.318Z,12.27
2022-08-30T08:54:17.075Z,13.40
2022-08-30T08:57:03.254Z,11.82
2022-08-30T08:59:49.130Z,11.63
2022-08-30T09:02:43.786Z,12.40
2022-08-30T09:05:37.937Z,13.73
2022-08-30T09:08:24.029Z,14.15
2022-08-30T09:11:16.751Z,15.25
2022-08-30T09:14:02.849Z,9.18
2022-08-30T09:16:57.912Z,15.38
2022-08-30T09:19:54.891Z,13.05
2022-08-30T09:22:46.604Z,12.63
2022-08-30T09:25:33.818Z,14.93
2022-08-30T09:28:28.890Z,12.80
2022-08-30T09:31:20.932Z,14.60
2022-08-30T09:34:17.600Z,13.70
2022-08-30T09:37:04.762Z,10.23
2022-08-30T09:39:50.902Z,9.82
2022-08-30T09:42:37.621Z,14.05
2022-08-30T09:45:36.159Z,13.27
2022-08-30T09:48:31.220Z,12.30
2022-08-30T09:51:27.149Z,9.57
2022-08-30T09:54:19.373Z,13.23
2022-08-30T09:57:46.556Z,15.10
2022-08-30T10:00:40.436Z,9.85
2022-08-30T10:03:51.230Z,13.02
2022-08-30T10:06:42.607Z,11.85
2022-08-30T10:09:35.502Z,12.27
2022-08-30T10:12:38.090Z,10.02
2022-08-30T10:15:40.790Z,11.70
2022-08-30T10:18:43.446Z,12.55
2022-08-30T10:21:35.797Z,11.98
2022-08-30T10:24:33.457Z,11.80
2022-08-30T10:27:25.291Z,10.07
2022-08-30T10:30:16.689Z,10.65
2022-08-30T10:33:09.991Z,9.32
2022-08-30T10:36:00.179Z,9.45
2022-08-30T10:38:52.429Z,9.00
2022-08-30T10:41:43.119Z,5.93
2022-08-30T10:44:37.953Z,8.90
2022-08-30T10:47:50.311Z,7.93
2022-08-30T10:50:42.579Z,7.20
2022-08-30T10:53:44.608Z,5.70
2022-08-30T10:56:31.633Z,4.20
2022-08-30T10:59:20.325Z,4.57
2022-08-30T11:02:24.770Z,5.25
2022-08-30T11:05:42.045Z,9.15
2022-08-30T11:08:52.343Z,5.53
2022-08-30T11:11:44.067Z,4.95
2022-08-30T11:14:30.416Z,4.97
2022-08-30T11:17:25.325Z,5.38
2022-08-30T11:20:28.981Z,6.95
2022-08-30T11:23:36.369Z,6.38
2022-08-30T11:26:48.355Z,7.78
2022-08-30T11:29:40.585Z,6.50
2022-08-30T11:33:00.128Z,6.10
2022-08-30T11:35:52.811Z,4.22
2022-08-30T11:38:38.968Z,6.22
2022-08-30T11:41:39.547Z,5.10
2022-08-30T11:47:40.666Z,5.30
2022-08-30T11:50:48.544Z,13.63
2022-08-30T11:53:44.673Z,8.27
2022-08-30T11:57:12.836Z,4.72
2022-08-30T12:00:31.550Z,6.70
2022-08-30T12:03:33.660Z,5.50
2022-08-30T12:06:39.879Z,5.00
2022-08-30T12:09:26.864Z,4.65
2022-08-30T12:12:38.474Z,5.90
2022-08-30T12:15:48.931Z,5.18
2022-08-30T12:18:37.647Z,4.80
2022-08-30T12:21:28.609Z,6.25
2022-08-30T12:24:27.508Z,7.05
2022-08-30T12:27:32.403Z,5.32
2022-08-30T12:30:27.455Z,4.95
2022-08-30T12:33:29.317Z,5.85
2022-08-30T12:36:49.636Z,4.38
2022-08-30T12:39:42.235Z,5.00
2022-08-30T12:42:32.266Z,4.80
2022-08-30T12:45:20.999Z,5.00
2022-08-30T12:48:14.712Z,35.15
2022-08-30T12:51:01.398Z,18.88
2022-08-30T12:53:47.524Z,18.67
2022-08-30T12:56:55.031Z,9.77
2022-08-30T13:02:49.681Z,7.32
2022-08-30T13:05:45.544Z,13.52
2022-08-30T13:08:45.714Z,6.03
2022-08-30T13:11:31.778Z,6.53
2022-08-30T13:14:29.712Z,6.65
2022-08-30T13:17:19.100Z,7.95
2022-08-30T13:20:27.305Z,7.03
2022-08-30T13:23:22.623Z,7.70
2022-08-30T13:26:08.544Z,8.70
2022-08-30T13:29:00.354Z,9.52
2022-08-30T13:31:46.802Z,10.98
2022-08-30T13:34:36.577Z,10.68
2022-08-30T13:40:30.640Z,14.07
2022-08-30T13:43:16.632Z,14.05
2022-08-30T13:46:02.353Z,15.43
2022-08-30T13:48:48.069Z,13.88
2022-08-30T13:51:38.179Z,15.35
2022-08-30T13:54:24.937Z,13.15
2022-08-30T13:57:10.464Z,15.52
2022-08-30T13:59:56.565Z,16.08
2022-08-30T14:02:46.345Z,14.18
2022-08-30T14:06:21.807Z,12.77
2022-08-30T14:08:46.344Z,11.55
2022-08-30T14:11:35.421Z,11.05
2022-08-30T14:14:36.448Z,9.93
2022-08-30T14:17:30.426Z,9.93
2022-08-30T14:20:16.860Z,9.95
2022-08-30T14:23:04.189Z,12.10
2022-08-30T14:25:55.781Z,11.10
2022-08-30T14:28:44.797Z,10.75
2022-08-30T14:31:32.801Z,10.35
2022-08-30T14:34:20.069Z,10.90
2022-08-30T14:37:07.125Z,9.65
2022-08-30T14:39:55.232Z,9.00
2022-08-30T14:42:41.428Z,6.40
2022-08-30T14:45:27.813Z,6.10
2022-08-30T14:48:14.832Z,4.88
2022-08-30T14:51:01.093Z,4.00
2022-08-30T14:53:48.015Z,4.25
2022-08-30T14:56:33.956Z,2.80
2022-08-30T14:59:21.261Z,2.70
2022-08-30T15:02:07.429Z,2.22
2022-08-30T15:04:53.801Z,2.67
2022-08-30T15:07:39.763Z,2.22
2022-08-30T15:10:26.141Z,2.45
2022-08-30T15:13:12.385Z,2.15
2022-08-30T15:15:58.518Z,2.17
2022-08-30T15:18:44.845Z,2.10
2022-08-30T15:21:33.325Z,2.55
2022-08-30T15:24:29.466Z,2.35
2022-08-30T15:27:15.492Z,1.80
2022-08-30T15:30:01.439Z,1.90
2022-08-30T15:32:48.298Z,1.92
2022-08-30T15:35:35.040Z,1.95
2022-08-30T15:38:22.000Z,1.65
2022-08-30T15:41:10.380Z,1.63
2022-08-30T15:43:58.129Z,2.03
2022-08-30T15:46:45.289Z,1.50
2022-08-30T15:49:31.898Z,1.50
2022-08-30T15:52:18.180Z,1.70
2022-08-30T15:55:04.805Z,1.77
2022-08-30T15:57:51.623Z,1.98
2022-08-30T16:00:39.676Z,2.00
2022-08-30T16:03:30.369Z,1.87
2022-08-30T16:06:18.941Z,1.75
2022-08-30T16:09:07.560Z,2.03
2022-08-30T16:11:53.441Z,2.08
2022-08-30T16:14:39.182Z,2.10
2022-08-30T16:17:25.332Z,2.30
2022-08-30T16:20:11.987Z,2.33
2022-08-30T16:22:57.749Z,2.15
2022-08-30T16:25:43.723Z,2.05
2022-08-30T16:28:29.629Z,2.20
2022-08-30T16:31:17.288Z,2.17
2022-08-30T16:34:04.520Z,2.03
2022-08-30T16:36:50.376Z,2.00
2022-08-30T16:39:36.650Z,2.20
2022-08-30T16:42:22.916Z,2.35
2022-08-30T16:45:10.962Z,2.13
2022-08-30T16:47:57.045Z,2.17
2022-08-30T16:50:45.136Z,2.10
2022-08-30T16:53:31.224Z,2.25
2022-08-30T16:56:19.962Z,2.08
2022-08-30T16:59:10.957Z,2.35
2022-08-30T17:01:57.648Z,2.13
2022-08-30T17:04:47.787Z,2.35
2022-08-30T17:10:26.381Z,2.47
2022-08-30T17:13:19.535Z,2.30
2022-08-30T17:16:06.665Z,2.95
2022-08-30T17:18:53.093Z,2.80
2022-08-30T17:21:39.064Z,3.40
2022-08-30T17:24:25.186Z,3.10
2022-08-30T17:27:11.609Z,2.60
2022-08-30T17:29:57.711Z,2.50
2022-08-30T17:32:44.288Z,2.42
2022-08-30T17:35:30.202Z,2.30
2022-08-30T17:38:16.246Z,2.53
2022-08-30T17:41:03.839Z,2.50
2022-08-30T17:43:51.796Z,2.42
2022-08-30T17:46:38.284Z,2.88
2022-08-30T17:49:25.145Z,2.58
2022-08-30T17:52:11.456Z,2.60
2022-08-30T17:54:57.883Z,2.70
2022-08-30T17:57:43.862Z,2.70
2022-08-30T18:00:29.853Z,2.47
2022-08-30T18:03:15.760Z,2.60
2022-08-30T18:06:02.537Z,2.60
2022-08-30T18:08:48.746Z,2.40
2022-08-30T18:11:39.626Z,2.58
2022-08-30T18:14:25.837Z,2.60
2022-08-30T18:17:12.169Z,2.75
2022-08-30T18:19:58.434Z,2.80
2022-08-30T18:22:44.496Z,2.80
2022-08-30T18:25:30.113Z,2.90
2022-08-30T18:28:16.643Z,2.67
2022-08-30T18:31:03.483Z,3.00
2022-08-30T18:33:49.901Z,3.30
2022-08-30T18:36:35.938Z,3.00
2022-08-30T18:39:23.407Z,3.47
2022-08-30T18:42:10.238Z,3.50
2022-08-30T18:44:56.099Z,4.93
2022-08-30T18:47:42.592Z,4.65
2022-08-30T18:50:28.802Z,4.32
2022-08-30T18:53:15.791Z,4.05
2022-08-30T18:56:16.728Z,3.55
2022-08-30T18:59:02.952Z,3.80
2022-08-30T19:01:54.270Z,3.90
2022-08-30T19:04:42.875Z,3.67
2022-08-30T19:07:34.571Z,3.55
2022-08-30T19:10:26.011Z,3.55
2022-08-30T19:13:12.414Z,3.25
2022-08-30T19:15:58.181Z,3.53
2022-08-30T19:18:45.222Z,3.83
2022-08-30T19:21:34.131Z,4.40
2022-08-30T19:24:20.771Z,3.58
2022-08-30T19:27:07.117Z,3.63
2022-08-30T19:29:53.759Z,3.85
2022-08-30T19:32:40.569Z,3.75
2022-08-30T19:35:27.301Z,3.95
2022-08-30T19:38:16.090Z,4.47
2022-08-30T19:41:02.913Z,3.85
2022-08-30T19:43:48.921Z,3.88
2022-08-30T19:46:35.532Z,4.05
2022-08-30T19:49:22.425Z,4.45
2022-08-30T19:52:08.535Z,3.88
2022-08-30T19:54:58.229Z,4.03
2022-08-30T19:57:44.564Z,4.25
2022-08-30T20:00:31.606Z,4.85
2022-08-30T20:03:17.817Z,4.90
2022-08-30T20:06:09.785Z,5.57
2022-08-30T20:08:57.717Z,4.78
2022-08-30T20:11:44.801Z,5.07
2022-08-30T20:14:36.117Z,4.85
2022-08-30T20:17:22.170Z,4.22
2022-08-30T20:20:11.507Z,4.20
2022-08-30T20:23:00.567Z,4.05
2022-08-30T20:25:51.398Z,4.00
2022-08-30T20:28:38.719Z,3.78
2022-08-30T20:31:29.554Z,3.70
2022-08-30T20:34:19.201Z,3.50
2022-08-30T20:37:09.862Z,3.15
2022-08-30T20:39:57.220Z,3.58
2022-08-30T20:42:49.997Z,3.13
2022-08-30T20:45:36.702Z,3.53
2022-08-30T20:48:26.122Z,3.30
2022-08-30T20:51:15.446Z,3.45
2022-08-30T20:54:01.532Z,3.78
2022-08-30T20:56:47.581Z,3.38
2022-08-30T20:59:33.419Z,3.63
2022-08-30T21:02:20.831Z,3.10
2022-08-30T21:05:07.988Z,3.50
2022-08-30T21:07:53.718Z,3.25
2022-08-30T21:10:41.131Z,2.92
2022-08-30T21:13:26.796Z,3.20
2022-08-30T21:16:13.279Z,3.03
2022-08-30T21:18:59.360Z,3.28
2022-08-30T21:21:44.695Z,3.08
2022-08-30T21:24:32.058Z,3.30
2022-08-30T21:27:18.566Z,3.30
2022-08-30T21:30:05.476Z,3.20
2022-08-30T21:32:51.744Z,3.50
2022-08-30T21:35:56.293Z,3.72
2022-08-30T21:38:41.896Z,4.18
2022-08-30T21:41:28.925Z,3.83
2022-08-30T21:44:17.980Z,3.72
2022-08-30T21:47:04.466Z,4.30
2022-08-30T21:49:50.410Z,4.00
2022-08-30T21:52:36.234Z,4.00
2022-08-30T21:55:22.335Z,4.15
2022-08-30T21:58:08.074Z,4.03
2022-08-30T22:00:54.841Z,4.20
2022-08-30T22:03:42.738Z,4.43
2022-08-30T22:06:31.221Z,4.00
2022-08-30T22:09:23.258Z,4.40
2022-08-30T22:12:08.938Z,3.50
2022-08-30T22:14:57.416Z,4.05
2022-08-30T22:17:44.038Z,4.05
2022-08-30T22:20:30.592Z,3.83
2022-08-30T22:23:19.038Z,4.15
2022-08-30T22:26:07.275Z,4.60
2022-08-30T22:28:54.505Z,4.22
2022-08-30T22:31:41.402Z,4.10
2022-08-30T22:34:27.839Z,4.05
2022-08-30T22:37:13.889Z,3.75
2022-08-30T22:39:59.963Z,4.53
2022-08-30T22:42:48.511Z,4.03
2022-08-30T22:45:34.568Z,4.18
2022-08-30T22:48:20.488Z,4.10
2022-08-30T22:51:06.821Z,4.60
2022-08-30T22:53:53.249Z,4.32
2022-08-30T22:56:40.514Z,4.50
2022-08-30T22:59:32.389Z,4.60
2022-08-30T23:02:18.883Z,4.75
2022-08-30T23:05:05.585Z,5.13
2022-08-30T23:07:52.256Z,6.18
2022-08-30T23:10:37.941Z,5.47
2022-08-30T23:13:24.445Z,5.63
2022-08-30T23:16:12.625Z,5.00
2022-08-30T23:18:59.862Z,4.70
2022-08-30T23:21:45.451Z,5.43
2022-08-30T23:24:50.521Z,4.68
2022-08-30T23:27:55.231Z,5.13
2022-08-30T23:30:59.706Z,4.90
2022-08-30T23:34:03.813Z,4.80
2022-08-30T23:37:07.977Z,5.47
2022-08-30T23:40:12.346Z,7.55
2022-08-30T23:43:18.861Z,8.70
2022-08-30T23:46:23.536Z,7.30
2022-08-30T23:49:28.036Z,8.65
2022-08-30T23:52:33.072Z,9.50
2022-08-30T23:55:37.589Z,9.75
2022-08-30T23:58:42.445Z,9.25
